Time;durP1;ratioP1;P1;durP2;ratioP2;P2;SDS_P1;SDS_P2;PMS_P1;PMS_P2;Temp;Humidity;BMP_temperature;BMP_pressure;BME280_temperature;BME280_humidity;BME280_pressure;Samples;Min_cycle;Max_cycle;Signal;HPM_P1;HPM_P2
2022/12/27 00:00:13;;;;;;;11.73;2.92;;;4.00;99.90;;;;;;5036336;28;20033;-77
2022/12/27 00:02:47;;;;;;;8.90;2.78;;;4.20;99.90;;;;;;5052191;28;20040;-78
2022/12/27 00:05:14;;;;;;;10.13;2.75;;;4.10;99.90;;;;;;5021756;28;20041;-79
2022/12/27 00:07:41;;;;;;;7.13;2.30;;;4.10;99.90;;;;;;5019280;28;20123;-78
2022/12/27 00:10:07;;;;;;;7.07;2.40;;;4.20;99.90;;;;;;5035535;28;20049;-77
2022/12/27 00:12:33;;;;;;;9.13;2.60;;;4.10;99.90;;;;;;5018565;28;20554;-77
2022/12/27 00:14:59;;;;;;;14.20;2.50;;;4.10;99.90;;;;;;5019008;28;20033;-77
2022/12/27 00:17:24;;;;;;;11.27;2.90;;;4.20;99.90;;;;;;5033920;28;20037;-77
2022/12/27 00:19:50;;;;;;;13.07;2.40;;;4.00;99.90;;;;;;5049195;28;20036;-77
2022/12/27 00:22:15;;;;;;;10.65;2.50;;;4.10;99.90;;;;;;5035497;28;20045;-77
2022/12/27 00:24:41;;;;;;;9.25;2.55;;;4.10;99.90;;;;;;5034653;28;20096;-78
2022/12/27 00:27:07;;;;;;;13.60;3.05;;;5.00;99.90;;;;;;5052461;28;20048;-78
2022/12/27 00:29:32;;;;;;;8.88;2.75;;;4.10;99.90;;;;;;5052693;28;20037;-77
2022/12/27 00:31:58;;;;;;;11.70;2.75;;;4.10;99.90;;;;;;5034480;28;20037;-78
2022/12/27 00:34:24;;;;;;;12.43;2.50;;;4.80;99.90;;;;;;5048016;28;20033;-77
2022/12/27 00:36:49;;;;;;;13.45;2.90;;;5.20;99.90;;;;;;5013278;28;20519;-77
2022/12/27 00:39:15;;;;;;;13.40;2.83;;;4.00;99.90;;;;;;5016700;28;20052;-77
2022/12/27 00:41:40;;;;;;;13.15;3.05;;;5.30;99.90;;;;;;5053186;28;20068;-77
2022/12/27 00:44:06;;;;;;;7.25;2.67;;;3.90;99.90;;;;;;5052819;28;21405;-78
2022/12/27 00:46:31;;;;;;;9.80;2.30;;;4.40;99.90;;;;;;5034803;28;20361;-77
2022/12/27 00:48:57;;;;;;;7.57;2.60;;;4.40;99.90;;;;;;5034248;28;20075;-77
2022/12/27 00:51:24;;;;;;;9.20;2.45;;;4.00;99.90;;;;;;5031618;28;20037;-78
2022/12/27 00:53:51;;;;;;;12.38;3.15;;;4.00;99.90;;;;;;5034764;28;20037;-77
2022/12/27 00:56:20;;;;;;;14.55;2.88;;;4.10;99.90;;;;;;5034533;28;20052;-78
2022/12/27 00:58:46;;;;;;;9.30;2.40;;;5.40;99.90;;;;;;5018348;28;20041;-77
2022/12/27 01:01:15;;;;;;;8.77;2.55;;;4.10;99.90;;;;;;5032630;28;20076;-77
2022/12/27 01:03:40;;;;;;;10.85;2.42;;;4.10;99.90;;;;;;5013488;28;20066;-77
2022/12/27 01:06:09;;;;;;;13.10;2.90;;;4.10;99.90;;;;;;5052015;28;20033;-77
2022/12/27 01:08:35;;;;;;;11.43;2.40;;;5.10;99.90;;;;;;5034388;28;20041;-77
2022/12/27 01:11:01;;;;;;;8.65;2.53;;;4.40;99.90;;;;;;5009916;28;20043;-78
2022/12/27 01:13:27;;;;;;;11.50;2.85;;;4.20;99.90;;;;;;5052305;28;20435;-78
2022/12/27 01:15:54;;;;;;;11.40;2.70;;;4.80;99.90;;;;;;5016063;28;20044;-77
2022/12/27 01:18:19;;;;;;;12.43;3.00;;;4.20;99.90;;;;;;5034000;28;20052;-79
2022/12/27 01:20:45;;;;;;;12.77;2.28;;;4.20;99.90;;;;;;5032998;28;20037;-78
2022/12/27 01:23:11;;;;;;;10.80;2.80;;;5.50;99.90;;;;;;5034452;28;20045;-77
2022/12/27 01:25:36;;;;;;;10.57;2.83;;;5.30;99.90;;;;;;5051875;28;20112;-77
2022/12/27 01:28:02;;;;;;;10.60;2.85;;;4.30;99.90;;;;;;5017977;28;20485;-78
2022/12/27 01:30:28;;;;;;;14.45;3.08;;;4.10;99.90;;;;;;5032570;28;20500;-78
2022/12/27 01:32:54;;;;;;;11.50;2.95;;;5.00;99.90;;;;;;5050724;28;20075;-78
2022/12/27 01:35:19;;;;;;;9.43;2.75;;;4.60;99.90;;;;;;5033827;28;20044;-78
2022/12/27 01:37:45;;;;;;;10.52;2.70;;;4.30;99.90;;;;;;5034046;28;20103;-78
2022/12/27 01:40:10;;;;;;;13.13;2.95;;;5.10;99.90;;;;;;5017920;28;20463;-78
2022/12/27 01:42:51;;;;;;;11.85;2.80;;;4.40;99.90;;;;;;5034257;28;20037;-78
2022/12/27 01:45:18;;;;;;;12.85;2.97;;;5.30;99.90;;;;;;5032981;28;20049;-77
2022/12/27 01:48:09;;;;;;;8.60;2.80;;;4.40;99.90;;;;;;5033638;28;20037;-77
2022/12/27 01:50:37;;;;;;;16.27;3.33;;;4.40;99.90;;;;;;5034254;28;20041;-78
2022/12/27 01:53:19;;;;;;;15.13;2.97;;;5.40;99.90;;;;;;5016839;28;20556;-78
2022/12/27 01:55:59;;;;;;;13.57;3.45;;;4.60;99.90;;;;;;5033659;28;20564;-78
2022/12/27 01:58:36;;;;;;;19.15;3.50;;;4.50;99.90;;;;;;5027981;28;20040;-78
2022/12/27 02:01:03;;;;;;;13.70;3.22;;;5.60;99.90;;;;;;5016631;28;20044;-78
2022/12/27 02:03:36;;;;;;;12.20;3.17;;;4.50;99.90;;;;;;5033270;28;20412;-78
2022/12/27 02:06:08;;;;;;;7.75;2.42;;;5.00;99.90;;;;;;5051273;28;20411;-78
2022/12/27 02:08:36;;;;;;;16.92;2.90;;;4.40;99.90;;;;;;5050525;28;20037;-78
2022/12/27 02:11:04;;;;;;;13.48;3.17;;;4.50;99.90;;;;;;5050976;28;20124;-78
2022/12/27 02:13:32;;;;;;;11.77;2.70;;;4.50;99.90;;;;;;5032773;28;20037;-78
2022/12/27 02:15:58;;;;;;;11.77;3.45;;;4.40;99.90;;;;;;5016830;28;20074;-77
2022/12/27 02:18:23;;;;;;;12.52;2.92;;;4.50;99.90;;;;;;5051356;28;20041;-78
2022/12/27 02:21:13;;;;;;;8.88;2.90;;;4.50;99.90;;;;;;5016874;28;20037;-78
2022/12/27 02:24:02;;;;;;;12.75;3.00;;;4.60;99.90;;;;;;5049879;28;20473;-78
2022/12/27 02:26:54;;;;;;;11.65;3.35;;;4.60;99.90;;;;;;5049210;28;20068;-78
2022/12/27 02:29:50;;;;;;;11.45;3.00;;;4.60;99.90;;;;;;5044996;28;20041;-78
2022/12/27 02:32:42;;;;;;;9.93;2.95;;;4.60;99.90;;;;;;5033886;28;20124;-78
2022/12/27 02:35:14;;;;;;;12.23;2.63;;;4.60;99.90;;;;;;5016053;28;20040;-77
2022/12/27 02:37:49;;;;;;;12.77;2.70;;;4.60;99.90;;;;;;5032837;28;20033;-78
2022/12/27 02:55:32;;;;;;;12.55;3.10;;;4.60;99.90;;;;;;5018940;28;20477;-81
2022/12/27 02:58:16;;;;;;;9.77;2.38;;;4.60;99.90;;;;;;5018803;28;20046;-81
2022/12/27 03:04:10;;;;;;;9.20;2.38;;;4.60;99.90;;;;;;5026281;28;20102;-79
2022/12/27 03:07:04;;;;;;;10.95;2.95;;;4.60;99.90;;;;;;5016698;28;20053;-79
2022/12/27 03:18:24;;;;;;;13.45;2.83;;;4.60;99.90;;;;;;5023965;28;20053;-79
2022/12/27 03:26:27;;;;;;;11.68;2.70;;;4.60;99.90;;;;;;5014275;28;20054;-78
2022/12/27 03:34:51;;;;;;;12.63;3.10;;;4.60;99.90;;;;;;4955277;28;20047;-79
2022/12/27 03:40:17;;;;;;;14.57;3.17;;;4.60;99.90;;;;;;4991188;28;20096;-79
2022/12/27 03:49:03;;;;;;;15.10;2.78;;;4.70;99.90;;;;;;5015519;28;20060;-79
2022/12/27 03:51:34;;;;;;;8.18;2.25;;;4.70;99.90;;;;;;4983095;28;20049;-79
2022/12/27 03:54:11;;;;;;;10.73;2.67;;;4.70;99.90;;;;;;5017005;28;20509;-79
2022/12/27 03:56:37;;;;;;;15.55;2.50;;;4.70;99.90;;;;;;5017236;28;20567;-79
2022/12/27 03:59:04;;;;;;;9.10;2.50;;;4.70;99.90;;;;;;5020175;28;20489;-78
2022/12/27 04:01:30;;;;;;;12.18;2.63;;;4.80;99.90;;;;;;5018441;28;20099;-78
2022/12/27 04:03:55;;;;;;;6.75;1.92;;;4.80;99.90;;;;;;5015291;28;20280;-79
2022/12/27 04:06:21;;;;;;;8.40;2.20;;;4.80;99.90;;;;;;5018496;28;20080;-79
2022/12/27 04:36:08;;;;;;;10.00;2.70;;;4.80;99.90;;;;;;5019729;28;20124;-79
2022/12/27 04:38:33;;;;;;;12.85;3.28;;;4.80;99.90;;;;;;4999916;28;20041;-79
2022/12/27 04:55:24;;;;;;;10.43;3.00;;;4.70;99.90;;;;;;5021307;28;20485;-79
2022/12/27 04:57:51;;;;;;;8.52;2.60;;;4.70;99.90;;;;;;5020467;28;20892;-78
2022/12/27 05:03:07;;;;;;;12.60;3.08;;;4.70;99.90;;;;;;5017893;28;20092;-79
2022/12/27 05:05:35;;;;;;;10.80;2.72;;;4.70;99.90;;;;;;5019331;28;20068;-79
2022/12/27 05:16:14;;;;;;;9.18;2.78;;;4.70;99.90;;;;;;5014749;28;20542;-80
2022/12/27 05:18:39;;;;;;;10.75;3.05;;;4.60;99.90;;;;;;5015005;28;20037;-80
2022/12/27 05:21:06;;;;;;;10.88;3.20;;;4.60;99.90;;;;;;5015015;28;20040;-79
2022/12/27 05:26:26;;;;;;;10.35;3.00;;;4.60;99.90;;;;;;5023070;28;20430;-79
2022/12/27 05:28:54;;;;;;;10.82;2.90;;;4.60;99.90;;;;;;5009648;28;20041;-79
2022/12/27 05:31:28;;;;;;;13.10;3.10;;;4.60;99.90;;;;;;5019809;28;20088;-79
2022/12/27 05:33:54;;;;;;;18.48;3.28;;;4.60;99.90;;;;;;5001869;28;20118;-82
2022/12/27 05:36:20;;;;;;;12.27;3.33;;;4.60;99.90;;;;;;5017801;28;20077;-81
2022/12/27 05:38:45;;;;;;;13.77;3.00;;;4.60;99.90;;;;;;5015379;28;20037;-82
2022/12/27 05:41:11;;;;;;;11.02;3.67;;;4.60;99.90;;;;;;5014500;28;20064;-79
2022/12/27 05:43:37;;;;;;;14.95;3.58;;;4.60;99.90;;;;;;5015701;28;20424;-78
2022/12/27 05:46:15;;;;;;;10.38;3.15;;;4.60;99.90;;;;;;5014257;28;20087;-78
2022/12/27 05:48:41;;;;;;;7.50;2.63;;;4.60;99.90;;;;;;5017358;28;20045;-79
2022/12/27 05:51:09;;;;;;;15.48;3.50;;;4.60;99.90;;;;;;5016717;28;20071;-79
2022/12/27 05:53:35;;;;;;;10.80;2.95;;;4.60;99.90;;;;;;5018095;28;20418;-77
2022/12/27 05:56:01;;;;;;;13.43;3.20;;;4.60;99.90;;;;;;5014866;28;20041;-79
2022/12/27 05:58:28;;;;;;;10.05;3.60;;;4.60;99.90;;;;;;4996112;28;20074;-79
2022/12/27 06:00:53;;;;;;;10.20;2.80;;;4.60;99.90;;;;;;5011227;28;20071;-79
2022/12/27 06:03:19;;;;;;;13.35;3.50;;;4.60;99.90;;;;;;5015081;28;20081;-79
2022/12/27 06:05:45;;;;;;;12.20;3.00;;;4.70;99.90;;;;;;5013462;28;20042;-79
2022/12/27 06:08:11;;;;;;;14.65;2.63;;;4.70;99.90;;;;;;5014793;28;20052;-80
2022/12/27 06:10:39;;;;;;;14.32;3.17;;;4.70;99.90;;;;;;5014631;28;20037;-79
2022/12/27 06:13:05;;;;;;;9.52;3.05;;;4.70;99.90;;;;;;5014317;28;20440;-81
2022/12/27 06:15:30;;;;;;;6.68;2.88;;;4.70;99.90;;;;;;5013161;28;20044;-82
2022/12/27 06:17:57;;;;;;;11.25;3.08;;;4.80;99.90;;;;;;5029414;28;20481;-82
2022/12/27 06:20:23;;;;;;;13.95;3.15;;;4.80;99.90;;;;;;5013637;28;20042;-79
2022/12/27 06:22:49;;;;;;;10.70;3.15;;;4.70;99.90;;;;;;5015029;28;20137;-79
2022/12/27 06:25:15;;;;;;;13.50;3.30;;;4.70;99.90;;;;;;4998220;28;20501;-79
2022/12/27 06:27:41;;;;;;;13.10;3.00;;;4.80;99.90;;;;;;5015832;28;20052;-79
2022/12/27 06:30:07;;;;;;;9.50;2.83;;;4.80;99.90;;;;;;5014617;28;20072;-78
2022/12/27 06:32:34;;;;;;;16.10;3.20;;;4.80;99.90;;;;;;5031194;28;20059;-78
2022/12/27 06:34:59;;;;;;;12.70;3.10;;;4.70;99.90;;;;;;5013965;28;20041;-79
2022/12/27 06:37:25;;;;;;;11.93;3.15;;;4.70;99.90;;;;;;5014622;28;20069;-79
2022/12/27 06:39:50;;;;;;;11.98;2.97;;;4.70;99.90;;;;;;5014950;28;20037;-78
2022/12/27 06:42:16;;;;;;;10.68;3.00;;;4.70;99.90;;;;;;5016257;28;20041;-78
2022/12/27 06:44:41;;;;;;;14.40;3.63;;;4.70;99.90;;;;;;5014172;28;20408;-80
2022/12/27 06:47:07;;;;;;;14.82;3.25;;;4.70;99.90;;;;;;5029881;28;20120;-79
2022/12/27 06:49:33;;;;;;;12.40;3.22;;;4.70;99.90;;;;;;5013165;28;20049;-79
2022/12/27 06:51:58;;;;;;;13.25;3.40;;;4.60;99.90;;;;;;5032031;28;20036;-80
2022/12/27 06:54:24;;;;;;;17.40;3.50;;;4.60;99.90;;;;;;5013204;28;20444;-79
2022/12/27 06:56:49;;;;;;;16.35;3.42;;;4.60;99.90;;;;;;5014129;28;20037;-80
2022/12/27 06:59:15;;;;;;;12.77;3.65;;;4.60;99.90;;;;;;5010303;28;20033;-83
2022/12/27 07:01:41;;;;;;;14.60;3.20;;;4.60;99.90;;;;;;5012306;28;20400;-80
2022/12/27 07:04:09;;;;;;;12.25;3.17;;;4.60;99.90;;;;;;5012762;28;20038;-80
2022/12/27 07:06:36;;;;;;;9.95;3.10;;;4.60;99.90;;;;;;5012964;28;20068;-79
2022/12/27 07:09:03;;;;;;;12.05;3.03;;;4.60;99.90;;;;;;5012824;28;20041;-80
2022/12/27 07:11:32;;;;;;;11.68;3.25;;;4.60;99.90;;;;;;5015502;28;20079;-79
2022/12/27 07:13:58;;;;;;;12.35;3.20;;;4.60;99.90;;;;;;5017391;28;20029;-80
2022/12/27 07:16:26;;;;;;;12.50;3.38;;;4.60;99.90;;;;;;5016923;28;20034;-79
2022/12/27 07:18:53;;;;;;;13.50;3.65;;;4.60;99.90;;;;;;5016948;28;20444;-80
2022/12/27 07:21:27;;;;;;;16.92;4.07;;;4.60;99.90;;;;;;5017382;28;20379;-81
2022/12/27 07:23:54;;;;;;;18.38;3.55;;;4.60;99.90;;;;;;5016859;28;20045;-81
2022/12/27 07:26:22;;;;;;;12.68;3.05;;;4.60;99.90;;;;;;4996449;28;20128;-80
2022/12/27 07:28:48;;;;;;;14.05;3.78;;;4.60;99.90;;;;;;5008788;28;20069;-82
2022/12/27 07:31:17;;;;;;;13.75;3.33;;;4.50;99.90;;;;;;4996904;28;20057;-82
2022/12/27 07:33:43;;;;;;;17.88;3.55;;;4.50;99.90;;;;;;5015035;28;20405;-82
2022/12/27 07:36:15;;;;;;;12.68;3.33;;;4.50;99.90;;;;;;4996213;28;20034;-82
2022/12/27 07:38:40;;;;;;;10.07;3.15;;;4.50;99.90;;;;;;5029105;28;20056;-82
2022/12/27 07:41:06;;;;;;;16.27;3.08;;;4.50;99.90;;;;;;5000806;28;20132;-81
2022/12/27 07:43:34;;;;;;;10.18;3.20;;;4.50;99.90;;;;;;5015960;28;20041;-82
2022/12/27 07:46:29;;;;;;;15.07;3.50;;;4.30;99.90;;;;;;5016237;28;20128;-81
2022/12/27 07:48:56;;;;;;;14.43;3.78;;;4.50;99.90;;;;;;5001078;28;20073;-81
2022/12/27 07:51:23;;;;;;;12.95;3.33;;;4.50;99.90;;;;;;5016829;28;20049;-81
2022/12/27 07:53:49;;;;;;;14.18;3.75;;;4.50;99.90;;;;;;5017005;28;20064;-81
2022/12/27 07:56:24;;;;;;;10.38;2.85;;;5.40;99.90;;;;;;5013486;28;20033;-81
2022/12/27 07:58:50;;;;;;;13.63;3.05;;;4.50;99.90;;;;;;5014394;28;20505;-81
2022/12/27 08:01:18;;;;;;;10.77;2.90;;;4.50;99.90;;;;;;4998167;28;20073;-79
2022/12/27 08:03:44;;;;;;;9.57;3.65;;;4.50;99.90;;;;;;5020571;28;20401;-80
2022/12/27 08:06:31;;;;;;;12.65;3.00;;;4.50;99.90;;;;;;5005377;28;20060;-80
2022/12/27 08:08:59;;;;;;;13.75;3.50;;;4.40;99.90;;;;;;5018866;28;20577;-79
2022/12/27 08:11:28;;;;;;;14.48;3.25;;;4.40;99.90;;;;;;5019552;28;20052;-79
2022/12/27 08:13:54;;;;;;;13.45;3.15;;;4.30;99.90;;;;;;5018727;28;20100;-79
2022/12/27 08:16:22;;;;;;;11.10;2.80;;;4.30;99.90;;;;;;5018121;28;20576;-80
2022/12/27 08:18:48;;;;;;;10.48;3.30;;;4.30;99.90;;;;;;5001548;28;20080;-80
2022/12/27 08:21:14;;;;;;;12.95;3.15;;;4.30;99.90;;;;;;5021872;28;20477;-80
2022/12/27 08:23:40;;;;;;;10.98;3.00;;;4.30;99.90;;;;;;5015181;28;20032;-79
2022/12/27 08:26:07;;;;;;;12.32;2.72;;;4.20;99.90;;;;;;5016216;28;20120;-79
2022/12/27 08:28:33;;;;;;;14.45;2.70;;;4.30;99.90;;;;;;5015745;28;20034;-80
2022/12/27 08:30:59;;;;;;;21.73;3.30;;;4.30;99.90;;;;;;5013475;28;20080;-80
2022/12/27 08:33:26;;;;;;;9.45;2.75;;;4.30;99.90;;;;;;5011161;28;20095;-80
2022/12/27 08:35:52;;;;;;;10.82;3.03;;;4.30;99.90;;;;;;5016914;28;20348;-79
2022/12/27 08:38:18;;;;;;;14.25;3.40;;;4.40;99.90;;;;;;5017484;28;20459;-79
2022/12/27 08:40:45;;;;;;;14.68;3.00;;;4.40;99.90;;;;;;5017911;28;20077;-79
2022/12/27 08:43:11;;;;;;;8.63;3.17;;;4.40;99.90;;;;;;5017047;28;20052;-78
2022/12/27 08:46:18;;;;;;;14.25;3.22;;;4.40;99.90;;;;;;5041794;22;20124;-78
2022/12/27 08:49:00;;;;;;;15.23;3.60;;;4.40;99.90;;;;;;4960951;28;20070;-78
2022/12/27 08:51:31;;;;;;;11.18;3.15;;;5.70;99.90;;;;;;5009125;28;20077;-78
2022/12/27 08:54:00;;;;;;;15.65;3.30;;;4.50;99.90;;;;;;5021143;28;20033;-78
2022/12/27 08:56:27;;;;;;;11.13;2.83;;;4.40;99.90;;;;;;5020671;28;20096;-78
2022/12/27 08:58:53;;;;;;;15.70;3.78;;;4.40;99.90;;;;;;5011446;28;20036;-78
2022/12/27 09:01:19;;;;;;;17.42;3.05;;;4.20;99.90;;;;;;5009987;28;20029;-78
2022/12/27 09:03:45;;;;;;;10.45;3.10;;;4.90;99.90;;;;;;5032798;28;20036;-78
2022/12/27 09:06:16;;;;;;;12.75;3.10;;;4.40;99.90;;;;;;5016363;28;20507;-78
2022/12/27 09:08:44;;;;;;;11.13;3.08;;;4.40;99.90;;;;;;5010340;28;20439;-78
2022/12/27 09:11:21;;;;;;;10.23;2.80;;;4.80;99.90;;;;;;5028464;28;20072;-77
2022/12/27 09:13:47;;;;;;;12.63;3.58;;;4.40;99.90;;;;;;5044066;28;20037;-81
2022/12/27 09:16:15;;;;;;;15.00;3.10;;;4.40;99.90;;;;;;5013266;28;20532;-78
2022/12/27 09:18:43;;;;;;;13.20;3.33;;;5.30;99.90;;;;;;5044034;28;20029;-79
2022/12/27 09:21:26;;;;;;;12.45;3.20;;;4.50;99.90;;;;;;5032569;28;20042;-78
2022/12/27 09:23:53;;;;;;;13.52;3.42;;;4.50;99.90;;;;;;5013204;28;20040;-78
2022/12/27 09:26:21;;;;;;;15.68;3.30;;;4.50;99.90;;;;;;5005900;28;20041;-78
2022/12/27 09:28:48;;;;;;;12.02;3.25;;;4.60;99.90;;;;;;5011632;28;20047;-79
2022/12/27 09:31:15;;;;;;;12.95;3.53;;;4.60;99.90;;;;;;5014593;28;20497;-77
2022/12/27 09:33:42;;;;;;;14.18;3.70;;;5.50;99.90;;;;;;5026282;28;20405;-79
2022/12/27 09:36:16;;;;;;;15.27;3.95;;;5.40;99.90;;;;;;5033539;28;20069;-79
2022/12/27 09:38:42;;;;;;;14.23;3.40;;;4.70;99.90;;;;;;5049587;28;20116;-79
2022/12/27 09:41:17;;;;;;;9.18;3.20;;;4.70;99.90;;;;;;5031596;28;20033;-78
2022/12/27 09:43:50;;;;;;;17.67;3.55;;;4.70;99.90;;;;;;5042910;28;20040;-78
2022/12/27 09:46:23;;;;;;;12.55;3.55;;;4.70;99.90;;;;;;5020562;28;20142;-79
2022/12/27 09:48:49;;;;;;;;;;;4.70;99.90;;;;;;5047088;28;20093;-78
2022/12/27 09:51:20;;;;;;;9.85;3.30;;;4.90;99.90;;;;;;5021626;28;20393;-79
2022/12/27 09:54:05;;;;;;;10.65;3.30;;;4.80;99.90;;;;;;5046918;28;20041;-78
2022/12/27 09:56:33;;;;;;;12.63;2.90;;;4.80;99.90;;;;;;5035116;28;20071;-78
2022/12/27 09:59:18;;;;;;;13.18;3.40;;;5.10;99.90;;;;;;5024894;28;20037;-78
2022/12/27 10:01:46;;;;;;;14.68;3.25;;;5.00;99.90;;;;;;5049618;28;20055;-81
2022/12/27 10:04:13;;;;;;;20.15;3.10;;;5.10;99.90;;;;;;5047398;28;20045;-78
2022/12/27 10:06:48;;;;;;;20.27;3.92;;;6.00;99.90;;;;;;5038814;28;20038;-78
2022/12/27 10:09:41;;;;;;;14.95;3.20;;;5.20;99.90;;;;;;5041292;28;20037;-78
2022/12/27 10:12:28;;;;;;;11.30;3.10;;;5.20;99.90;;;;;;5049052;28;20515;-78
2022/12/27 10:15:03;;;;;;;19.65;3.70;;;5.20;99.90;;;;;;5030850;28;20051;-78
2022/12/27 10:17:48;;;;;;;16.08;3.30;;;5.30;99.90;;;;;;5019842;28;20116;-78
2022/12/27 10:20:39;;;;;;;16.02;3.40;;;5.30;99.90;;;;;;5019907;28;20500;-78
2022/12/27 10:23:14;;;;;;;14.13;2.90;;;4.30;99.90;;;;;;5027093;28;20131;-78
2022/12/27 10:25:42;;;;;;;13.38;2.92;;;6.20;99.90;;;;;;5045008;28;20056;-78
2022/12/27 10:28:18;;;;;;;11.98;3.13;;;5.40;99.90;;;;;;5010136;28;20049;-78
2022/12/27 10:30:44;;;;;;;13.55;3.17;;;5.40;99.90;;;;;;5028738;28;20049;-78
2022/12/27 10:33:25;;;;;;;15.52;3.42;;;5.40;99.90;;;;;;5020291;28;20048;-78
2022/12/27 10:35:51;;;;;;;11.25;3.38;;;6.50;99.90;;;;;;5029530;28;20514;-78
2022/12/27 10:38:17;;;;;;;10.77;2.90;;;5.50;99.90;;;;;;5049593;28;20087;-79
2022/12/27 10:41:01;;;;;;;10.98;3.15;;;5.50;99.90;;;;;;5003221;28;20073;-79
2022/12/27 10:43:40;;;;;;;12.98;3.00;;;5.60;99.90;;;;;;5014171;28;20106;-78
2022/12/27 10:46:19;;;;;;;14.38;3.13;;;5.60;99.90;;;;;;5024247;28;20037;-78
2022/12/27 10:49:00;;;;;;;13.65;3.17;;;5.60;99.90;;;;;;5031765;28;20512;-78
2022/12/27 10:51:34;;;;;;;12.48;2.72;;;5.60;99.90;;;;;;5028805;28;20049;-78
2022/12/27 10:54:12;;;;;;;13.23;3.35;;;5.70;99.90;;;;;;5049249;28;20045;-78
2022/12/27 10:56:40;;;;;;;14.13;3.13;;;5.70;99.90;;;;;;5042452;28;20067;-78
2022/12/27 10:59:11;;;;;;;10.52;2.83;;;5.70;99.90;;;;;;5012173;28;20543;-79
2022/12/27 11:01:37;;;;;;;16.90;3.08;;;5.80;99.90;;;;;;5007430;28;20077;-78
2022/12/27 11:04:18;;;;;;;9.70;3.13;;;5.00;99.90;;;;;;5023731;28;20077;-78
2022/12/27 11:06:50;;;;;;;13.77;3.47;;;5.90;99.90;;;;;;5031758;28;20037;-81
2022/12/27 11:09:30;;;;;;;13.75;2.95;;;5.90;99.90;;;;;;5026324;28;20052;-78
2022/12/27 11:12:20;;;;;;;12.73;2.83;;;6.90;99.90;;;;;;5031657;28;20041;-78
2022/12/27 11:15:09;;;;;;;11.13;2.72;;;6.10;99.90;;;;;;5043987;28;20037;-79
2022/12/27 11:17:39;;;;;;;10.45;2.40;;;6.10;99.90;;;;;;5025535;28;20099;-79
2022/12/27 11:20:20;;;;;;;9.30;2.88;;;6.10;99.90;;;;;;5020238;28;20043;-77
2022/12/27 11:22:54;;;;;;;13.77;2.88;;;6.20;99.90;;;;;;5045080;28;20108;-78
2022/12/27 11:25:21;;;;;;;12.52;2.97;;;6.20;99.90;;;;;;5012519;28;20032;-78
2022/12/27 11:27:50;;;;;;;14.07;3.08;;;5.80;99.90;;;;;;5038198;28;20034;-79
2022/12/27 11:30:22;;;;;;;19.00;3.65;;;6.20;99.90;;;;;;5040719;28;20041;-79
2022/12/27 11:32:48;;;;;;;10.57;2.83;;;6.10;99.90;;;;;;5037987;28;20076;-79
2022/12/27 11:35:20;;;;;;;12.60;3.05;;;6.10;99.90;;;;;;5015918;28;20041;-78
2022/12/27 11:37:47;;;;;;;15.40;3.38;;;6.10;99.90;;;;;;5038942;28;20038;-79
2022/12/27 11:40:34;;;;;;;11.23;3.10;;;6.10;99.90;;;;;;5012478;28;20040;-79
2022/12/27 11:43:09;;;;;;;11.82;3.20;;;7.00;99.90;;;;;;5042924;28;20446;-79
2022/12/27 11:45:41;;;;;;;11.98;3.55;;;6.10;99.90;;;;;;5027951;28;20215;-79
2022/12/27 11:48:24;;;;;;;18.15;3.22;;;7.20;99.90;;;;;;4998469;28;20069;-78
2022/12/27 11:51:02;;;;;;;14.43;3.10;;;6.20;99.90;;;;;;5047236;28;20067;-79
2022/12/27 11:53:56;;;;;;;17.38;3.40;;;6.20;99.90;;;;;;5029876;28;20051;-79
2022/12/27 11:56:25;;;;;;;12.68;3.40;;;6.20;99.90;;;;;;5043748;28;20405;-78
2022/12/27 11:59:16;;;;;;;12.23;3.15;;;6.20;99.90;;;;;;5014864;28;20112;-80
2022/12/27 12:02:09;;;;;;;14.70;3.45;;;6.30;99.90;;;;;;5012329;28;20483;-79
2022/12/27 12:04:58;;;;;;;12.57;3.03;;;6.30;99.90;;;;;;5032957;28;20448;-78
2022/12/27 12:07:39;;;;;;;17.90;3.42;;;6.40;99.90;;;;;;5018732;28;20051;-79
2022/12/27 12:10:59;;;;;;;8.70;3.00;;;6.40;99.90;;;;;;5038200;28;20041;-80
2022/12/27 12:13:49;;;;;;;10.38;3.30;;;6.40;99.90;;;;;;4992094;28;20133;-80
2022/12/27 12:16:20;;;;;;;10.98;3.20;;;6.40;99.90;;;;;;5022155;28;20615;-79
2022/12/27 12:19:06;;;;;;;16.00;4.05;;;6.40;99.90;;;;;;5039808;28;20090;-79
2022/12/27 12:22:19;;;;;;;15.52;3.50;;;6.50;99.90;;;;;;5028950;28;20537;-78
2022/12/27 12:25:00;;;;;;;;;;;6.60;99.90;;;;;;5033161;28;20043;-79
2022/12/27 12:27:43;;;;;;;9.07;3.90;;;6.60;99.90;;;;;;5045150;28;20007;-78
2022/12/27 12:30:28;;;;;;;11.70;3.70;;;7.40;99.90;;;;;;5036454;28;20485;-79
2022/12/27 12:33:31;;;;;;;13.40;3.97;;;6.90;99.90;;;;;;5012695;28;20099;-78
2022/12/27 12:36:17;;;;;;;9.65;4.22;;;6.40;99.90;;;;;;5024206;28;20045;-78
2022/12/27 12:39:18;;;;;;;13.38;4.65;;;6.40;99.90;;;;;;5021985;28;20052;-79
2022/12/27 12:42:02;;;;;;;14.95;5.00;;;6.80;99.90;;;;;;5010880;28;20124;-78
2022/12/27 12:44:40;;;;;;;13.48;5.28;;;6.30;99.90;;;;;;5011944;28;20048;-78
2022/12/27 12:47:27;;;;;;;17.83;6.55;;;6.20;99.90;;;;;;5043441;28;20037;-78
2022/12/27 12:49:52;;;;;;;16.50;5.47;;;6.20;99.90;;;;;;5024436;28;20045;-78
2022/12/27 12:52:30;;;;;;;14.48;6.90;;;6.10;99.90;;;;;;5031647;28;20489;-78
2022/12/27 12:55:24;;;;;;;17.35;6.50;;;6.20;99.90;;;;;;5004859;28;20044;-80
2022/12/27 12:58:06;;;;;;;22.80;7.72;;;6.20;99.90;;;;;;5043506;28;20470;-78
2022/12/27 13:00:56;;;;;;;19.10;7.22;;;7.20;99.90;;;;;;5050857;28;20040;-78
2022/12/27 13:03:25;;;;;;;18.25;7.53;;;6.20;99.90;;;;;;5029285;28;20057;-79
2022/12/27 13:06:14;;;;;;;19.15;8.15;;;6.30;99.90;;;;;;5030916;28;20412;-79
2022/12/27 13:08:55;;;;;;;17.45;8.80;;;6.30;99.90;;;;;;5022554;28;20045;-78
2022/12/27 13:11:27;;;;;;;16.50;9.23;;;6.30;99.90;;;;;;5017896;28;20045;-78
2022/12/27 13:14:05;;;;;;;18.70;9.40;;;6.70;99.90;;;;;;5033830;28;20330;-78
2022/12/27 13:16:52;;;;;;;20.15;9.27;;;6.90;99.90;;;;;;5008572;28;20044;-78
2022/12/27 13:19:45;;;;;;;24.52;10.18;;;7.20;99.90;;;;;;5043299;28;20045;-78
2022/12/27 13:22:46;;;;;;;18.67;10.25;;;7.20;99.90;;;;;;5033524;28;20047;-78
2022/12/27 13:25:36;;;;;;;20.77;10.50;;;7.20;99.90;;;;;;5026725;28;20536;-78
2022/12/27 13:28:29;;;;;;;19.77;10.82;;;7.10;99.90;;;;;;5023672;28;20056;-78
2022/12/27 13:31:17;;;;;;;18.95;11.55;;;7.00;99.90;;;;;;5029096;28;20052;-78
2022/12/27 13:34:17;;;;;;;18.45;11.43;;;6.80;99.90;;;;;;5026161;28;20053;-79
2022/12/27 13:37:09;;;;;;;22.60;11.75;;;6.70;99.90;;;;;;5010797;28;20118;-78
2022/12/27 13:39:44;;;;;;;21.45;12.43;;;6.70;99.90;;;;;;5013400;28;20055;-78
2022/12/27 13:42:41;;;;;;;19.20;11.90;;;6.70;99.90;;;;;;5030810;28;20533;-78
2022/12/27 13:45:41;;;;;;;21.88;11.65;;;6.70;99.90;;;;;;5051556;28;20567;-78
2022/12/27 13:48:25;;;;;;;23.00;12.00;;;6.60;99.90;;;;;;5049189;28;20044;-80
2022/12/27 13:51:10;;;;;;;20.92;12.10;;;7.30;99.90;;;;;;5031526;28;20045;-78
2022/12/27 13:53:50;;;;;;;18.73;11.75;;;6.50;99.90;;;;;;5018049;28;20037;-78
2022/12/27 13:56:24;;;;;;;19.45;12.30;;;6.50;99.90;;;;;;5041209;28;20037;-78
2022/12/27 13:59:22;;;;;;;22.27;12.25;;;7.60;99.90;;;;;;5028269;28;20033;-78
2022/12/27 14:02:10;;;;;;;21.27;12.85;;;6.40;99.90;;;;;;5030375;28;20045;-78
2022/12/27 14:05:00;;;;;;;24.48;12.38;;;6.40;99.90;;;;;;5030082;28;20052;-78
2022/12/27 14:07:49;;;;;;;19.77;11.50;;;6.40;99.90;;;;;;5025176;28;20509;-78
2022/12/27 14:10:45;;;;;;;24.00;12.25;;;6.30;99.90;;;;;;5053096;28;20032;-78
2022/12/27 14:13:11;;;;;;;22.35;13.02;;;6.30;99.90;;;;;;5033787;28;20048;-78
2022/12/27 14:15:55;;;;;;;22.70;13.23;;;6.20;99.90;;;;;;5027130;28;20320;-78
2022/12/27 14:18:51;;;;;;;27.20;13.10;;;6.30;99.90;;;;;;5019521;28;20042;-79
2022/12/27 14:21:36;;;;;;;18.58;12.32;;;6.30;99.90;;;;;;5042627;28;20025;-78
2022/12/27 14:24:28;;;;;;;24.58;12.23;;;6.30;99.90;;;;;;5030235;28;20496;-78
2022/12/27 14:27:30;;;;;;;21.10;12.40;;;6.20;99.90;;;;;;5039570;28;20083;-79
2022/12/27 14:30:08;;;;;;;21.85;12.30;;;6.20;99.90;;;;;;5029626;28;20037;-78
2022/12/27 14:32:52;;;;;;;22.02;13.18;;;6.20;99.90;;;;;;5039215;28;20048;-79
2022/12/27 14:35:24;;;;;;;24.63;13.32;;;6.20;99.90;;;;;;5021788;28;20034;-78
2022/12/27 14:38:27;;;;;;;22.48;13.10;;;6.20;99.90;;;;;;5017715;28;20432;-78
2022/12/27 14:41:21;;;;;;;22.35;11.98;;;6.20;99.90;;;;;;5046961;28;20068;-78
2022/12/27 14:44:20;;;;;;;26.58;12.75;;;6.20;99.90;;;;;;5032507;28;20068;-78
2022/12/27 14:47:07;;;;;;;24.88;13.77;;;6.10;99.90;;;;;;5025107;23;20041;-64
2022/12/27 14:50:04;;;;;;;22.92;12.98;;;6.10;99.90;;;;;;5016282;28;20042;-63
2022/12/27 14:52:58;;;;;;;23.60;12.20;;;6.10;99.90;;;;;;4993343;28;20488;-63
2022/12/27 14:55:42;;;;;;;22.55;12.00;;;6.00;99.90;;;;;;4987649;28;20042;-65
2022/12/27 14:58:26;;;;;;;23.75;13.63;;;6.00;99.90;;;;;;4973965;28;20049;-63
2022/12/27 15:01:01;;;;;;;21.15;12.48;;;6.00;99.90;;;;;;4989754;28;20119;-63
2022/12/27 15:03:57;;;;;;;25.77;12.68;;;6.00;99.90;;;;;;4990264;28;20069;-64
2022/12/27 15:06:34;;;;;;;22.05;11.95;;;5.90;99.90;;;;;;4999973;28;20145;-63